Time;durP1;ratioP1;P1;durP2;ratioP2;P2;SDS_P1;SDS_P2;PMS_P1;PMS_P2;Temp;Humidity;BMP_temperature;BMP_pressure;BME280_temperature;BME280_humidity;BME280_pressure;Samples;Min_cycle;Max_cycle;Signal;HPM_P1;HPM_P2
2023/07/08 00:02:09;;;;;;;11.05;5.00;;;;;;;;;;5023765;28;20491;-70
2023/07/08 00:04:35;;;;;;;7.57;4.80;;;;;;;;;;5020807;28;20056;-70
2023/07/08 00:07:01;;;;;;;6.20;4.20;;;;;;;;;;5027639;28;20041;-70
2023/07/08 00:09:26;;;;;;;7.15;4.82;;;;;;;;;;5023977;28;20504;-70
2023/07/08 00:11:52;;;;;;;9.80;5.50;;;;;;;;;;5026964;28;20039;-70
2023/07/08 00:14:17;;;;;;;5.07;4.35;;;;;;;;;;5026163;28;20033;-70
2023/07/08 00:16:43;;;;;;;8.70;5.43;;;;;;;;;;5026371;28;20037;-70
2023/07/08 00:19:10;;;;;;;6.00;4.68;;;;;;;;;;5025297;28;20053;-70
2023/07/08 00:21:36;;;;;;;6.00;5.30;;;;;;;;;;5026286;28;20483;-70
2023/07/08 00:24:02;;;;;;;7.63;5.70;;;;;;;;;;5023641;28;20058;-70
2023/07/08 00:26:29;;;;;;;7.20;5.20;;;;;;;;;;5023503;28;20033;-70
2023/07/08 00:28:58;;;;;;;6.95;5.28;;;;;;;;;;5023517;28;20033;-70
2023/07/08 00:31:25;;;;;;;8.27;5.22;;;;;;;;;;5026927;28;20037;-70
2023/07/08 00:33:53;;;;;;;8.90;5.85;;;;;;;;;;5022720;28;20037;-70
2023/07/08 00:36:18;;;;;;;8.73;5.63;;;;;;;;;;5025453;28;20033;-70
2023/07/08 00:38:47;;;;;;;7.53;5.00;;;;;;;;;;5032462;28;20556;-70
2023/07/08 00:41:26;;;;;;;;;;;;;;;;;;5024361;28;20068;-70
2023/07/08 00:43:55;;;;;;;6.97;5.10;;;;;;;;;;5039044;28;19948;-70
2023/07/08 00:46:27;;;;;;;5.93;4.45;;;;;;;;;;5039836;28;20160;-70
2023/07/08 00:49:33;;;;;;;7.88;4.95;;;;;;;;;;5028906;28;20046;-70
2023/07/08 00:52:19;;;;;;;8.52;5.03;;;;;;;;;;5012785;28;20076;-70
2023/07/08 00:54:46;;;;;;;7.80;4.90;;;;;;;;;;5033684;28;20123;-70
2023/07/08 00:57:12;;;;;;;6.00;4.45;;;;;;;;;;5041462;28;20033;-70
2023/07/08 00:59:54;;;;;;;7.28;5.20;;;;;;;;;;5026509;28;20033;-70
2023/07/08 01:02:23;;;;;;;6.60;5.38;;;;;;;;;;5037454;28;20041;-70
2023/07/08 01:04:58;;;;;;;7.85;5.45;;;;;;;;;;5024757;28;20025;-70
2023/07/08 01:07:25;;;;;;;8.25;5.93;;;;;;;;;;5036995;28;20041;-70
2023/07/08 01:10:02;;;;;;;7.22;5.43;;;;;;;;;;5024386;28;20043;-70
2023/07/08 01:12:35;;;;;;;5.73;4.80;;;;;;;;;;5024663;28;20511;-70
2023/07/08 01:15:02;;;;;;;7.80;4.85;;;;;;;;;;5027114;28;20398;-70
2023/07/08 01:17:32;;;;;;;;;;;;;;;;;;5034386;28;20029;-70
2023/07/08 01:20:06;;;;;;;7.82;5.45;;;;;;;;;;5041726;28;19913;-70
2023/07/08 01:22:35;;;;;;;7.85;4.93;;;;;;;;;;5026246;28;20096;-70
2023/07/08 01:25:03;;;;;;;7.13;5.50;;;;;;;;;;5040485;28;20098;-70
2023/07/08 01:27:33;;;;;;;8.27;5.65;;;;;;;;;;5024668;28;20175;-70
2023/07/08 01:30:02;;;;;;;8.77;5.47;;;;;;;;;;5025267;28;20048;-69
2023/07/08 01:32:31;;;;;;;6.72;5.15;;;;;;;;;;5026792;28;20179;-69
2023/07/08 01:35:00;;;;;;;7.40;5.60;;;;;;;;;;5010274;28;20034;-69
2023/07/08 01:37:52;;;;;;;7.35;5.10;;;;;;;;;;5024823;28;20033;-69
2023/07/08 01:40:33;;;;;;;7.72;5.50;;;;;;;;;;5040232;28;20025;-69
2023/07/08 01:43:00;;;;;;;7.32;5.40;;;;;;;;;;5024289;28;20068;-69
2023/07/08 01:45:30;;;;;;;6.60;5.25;;;;;;;;;;5036072;28;20033;-70
2023/07/08 01:48:14;;;;;;;6.38;5.10;;;;;;;;;;5023702;28;20033;-69
2023/07/08 01:51:05;;;;;;;6.75;5.40;;;;;;;;;;5024345;28;20068;-69
2023/07/08 01:53:42;;;;;;;8.15;5.55;;;;;;;;;;5018625;28;20094;-70
2023/07/08 01:56:10;;;;;;;6.72;5.43;;;;;;;;;;5028296;28;20048;-70
2023/07/08 01:58:35;;;;;;;8.15;5.60;;;;;;;;;;5037653;28;20711;-70
2023/07/08 02:01:01;;;;;;;8.65;5.80;;;;;;;;;;5039177;28;20046;-70
2023/07/08 02:03:27;;;;;;;7.03;5.30;;;;;;;;;;5024801;28;20033;-69
2023/07/08 02:05:54;;;;;;;9.32;5.22;;;;;;;;;;5016900;28;20041;-69
2023/07/08 02:08:21;;;;;;;9.35;5.30;;;;;;;;;;5033324;28;20034;-69
2023/07/08 02:10:56;;;;;;;10.18;5.03;;;;;;;;;;5031104;28;20123;-69
2023/07/08 02:13:22;;;;;;;8.52;4.22;;;;;;;;;;5039938;28;20038;-70
2023/07/08 02:15:49;;;;;;;11.07;4.97;;;;;;;;;;5032241;28;20476;-69
2023/07/08 02:18:15;;;;;;;7.32;5.18;;;;;;;;;;5024905;28;20704;-70
2023/07/08 02:20:45;;;;;;;6.93;4.85;;;;;;;;;;5025279;28;20040;-70
2023/07/08 02:23:11;;;;;;;8.25;5.28;;;;;;;;;;5038057;28;20044;-69
2023/07/08 02:25:37;;;;;;;6.85;4.95;;;;;;;;;;5038623;28;20045;-69
2023/07/08 02:28:03;;;;;;;6.88;4.80;;;;;;;;;;5023858;28;20116;-69
2023/07/08 02:30:29;;;;;;;7.18;5.05;;;;;;;;;;5023394;28;20409;-69
2023/07/08 02:32:58;;;;;;;5.18;4.63;;;;;;;;;;5030934;28;20040;-69
2023/07/08 02:35:28;;;;;;;10.23;5.85;;;;;;;;;;5040030;28;20501;-70
2023/07/08 02:37:55;;;;;;;7.88;5.57;;;;;;;;;;5025510;28;20029;-69
2023/07/08 02:40:21;;;;;;;7.97;5.55;;;;;;;;;;5027981;28;20029;-70
2023/07/08 02:42:47;;;;;;;8.65;4.95;;;;;;;;;;5028969;28;20374;-69
2023/07/08 02:45:13;;;;;;;10.98;6.20;;;;;;;;;;5037446;28;20485;-70
2023/07/08 02:47:39;;;;;;;6.97;5.45;;;;;;;;;;5032765;28;20701;-69
2023/07/08 02:50:07;;;;;;;7.15;5.10;;;;;;;;;;5025969;28;20048;-70
2023/07/08 02:52:32;;;;;;;8.60;6.05;;;;;;;;;;5033216;28;20063;-69
2023/07/08 02:54:58;;;;;;;10.52;5.30;;;;;;;;;;5043712;28;20696;-69
2023/07/08 02:57:23;;;;;;;7.40;5.10;;;;;;;;;;5036245;28;20487;-69
2023/07/08 02:59:49;;;;;;;7.50;5.10;;;;;;;;;;5038119;28;20033;-69
2023/07/08 03:02:14;;;;;;;8.32;4.90;;;;;;;;;;5044826;28;20064;-69
2023/07/08 03:04:40;;;;;;;7.70;5.43;;;;;;;;;;5028707;28;20034;-70
2023/07/08 03:07:11;;;;;;;8.48;6.10;;;;;;;;;;5027883;28;20041;-70
2023/07/08 03:09:38;;;;;;;7.47;5.43;;;;;;;;;;5028013;28;20152;-69
2023/07/08 03:12:06;;;;;;;8.57;5.28;;;;;;;;;;5028433;28;20041;-69
2023/07/08 03:14:31;;;;;;;7.70;5.53;;;;;;;;;;5026022;28;20038;-69
2023/07/08 03:16:57;;;;;;;7.28;5.40;;;;;;;;;;5029188;28;20029;-69
2023/07/08 03:19:22;;;;;;;10.85;6.00;;;;;;;;;;5043291;28;20108;-69
2023/07/08 03:21:48;;;;;;;9.45;6.10;;;;;;;;;;5028392;28;20037;-69
2023/07/08 03:24:17;;;;;;;11.77;6.10;;;;;;;;;;5041944;28;20457;-69
2023/07/08 03:26:45;;;;;;;7.80;5.53;;;;;;;;;;5039083;28;21054;-69
2023/07/08 03:29:15;;;;;;;11.00;5.68;;;;;;;;;;5050233;28;20041;-69
2023/07/08 03:31:41;;;;;;;9.85;6.07;;;;;;;;;;5034781;28;20056;-68
2023/07/08 03:34:10;;;;;;;9.07;5.78;;;;;;;;;;5026173;28;20033;-69
2023/07/08 03:36:48;;;;;;;7.93;5.28;;;;;;;;;;5042782;28;20041;-69
2023/07/08 03:39:19;;;;;;;9.23;5.80;;;;;;;;;;5042696;28;20501;-69
2023/07/08 03:41:45;;;;;;;7.82;4.95;;;;;;;;;;5040779;28;20045;-69
2023/07/08 03:44:12;;;;;;;8.13;5.22;;;;;;;;;;5028182;28;20037;-68
2023/07/08 03:46:39;;;;;;;8.38;5.85;;;;;;;;;;5039084;28;20030;-69
2023/07/08 03:49:05;;;;;;;13.27;5.93;;;;;;;;;;5025850;28;20048;-69
2023/07/08 03:51:36;;;;;;;8.05;5.38;;;;;;;;;;5040578;28;20048;-69
2023/07/08 03:54:02;;;;;;;7.40;5.55;;;;;;;;;;5027629;28;20056;-68
2023/07/08 03:56:32;;;;;;;9.15;5.85;;;;;;;;;;5026222;28;20140;-68
2023/07/08 03:58:58;;;;;;;8.25;5.70;;;;;;;;;;5025849;28;20049;-68
2023/07/08 04:01:25;;;;;;;7.80;5.45;;;;;;;;;;5024272;28;20029;-69
2023/07/08 04:03:54;;;;;;;9.57;6.07;;;;;;;;;;5025898;28;20037;-68
2023/07/08 04:06:20;;;;;;;9.00;5.82;;;;;;;;;;5022775;28;20045;-69
2023/07/08 04:08:46;;;;;;;8.98;6.50;;;;;;;;;;5025178;28;20033;-68
2023/07/08 04:11:14;;;;;;;8.90;5.32;;;;;;;;;;5029562;28;20037;-68
2023/07/08 04:13:40;;;;;;;7.50;5.60;;;;;;;;;;5026861;28;20033;-69
2023/07/08 04:16:06;;;;;;;7.80;5.65;;;;;;;;;;5027582;28;20032;-68
2023/07/08 04:18:32;;;;;;;8.70;5.63;;;;;;;;;;5028896;28;20032;-68
2023/07/08 04:20:58;;;;;;;8.52;5.80;;;;;;;;;;5030627;28;20033;-69
2023/07/08 04:23:24;;;;;;;9.43;5.65;;;;;;;;;;5025891;28;20037;-68
2023/07/08 04:25:53;;;;;;;7.18;5.85;;;;;;;;;;5027248;28;20040;-69
2023/07/08 04:28:19;;;;;;;6.95;5.65;;;;;;;;;;5026631;28;20041;-69
2023/07/08 04:30:45;;;;;;;8.35;5.75;;;;;;;;;;5027034;28;20036;-68
2023/07/08 04:33:13;;;;;;;9.73;6.80;;;;;;;;;;5041029;28;20048;-69
2023/07/08 04:35:40;;;;;;;9.40;5.80;;;;;;;;;;5026874;28;20049;-69
2023/07/08 04:38:25;;;;;;;8.57;6.20;;;;;;;;;;5026588;28;20037;-69
2023/07/08 04:40:52;;;;;;;8.40;6.05;;;;;;;;;;5025141;28;20034;-69
2023/07/08 04:43:19;;;;;;;9.93;6.63;;;;;;;;;;5026769;28;20726;-69
2023/07/08 04:45:52;;;;;;;7.93;5.80;;;;;;;;;;5026577;28;20037;-69
2023/07/08 04:48:22;;;;;;;9.20;5.93;;;;;;;;;;5026179;28;20151;-68
2023/07/08 04:50:49;;;;;;;9.52;5.30;;;;;;;;;;5023485;28;20556;-68
2023/07/08 04:53:15;;;;;;;9.05;5.53;;;;;;;;;;5026589;28;20124;-68
2023/07/08 04:55:54;;;;;;;7.35;5.43;;;;;;;;;;5026660;28;20536;-69
2023/07/08 04:58:19;;;;;;;6.50;5.25;;;;;;;;;;5026307;28;20063;-69
2023/07/08 05:00:45;;;;;;;6.70;5.28;;;;;;;;;;5025141;28;20574;-69
2023/07/08 05:03:10;;;;;;;8.93;5.72;;;;;;;;;;5026292;28;20045;-68
2023/07/08 05:05:36;;;;;;;8.70;5.93;;;;;;;;;;5026171;28;20040;-69
2023/07/08 05:08:01;;;;;;;8.85;5.80;;;;;;;;;;5024510;28;20045;-69
2023/07/08 05:10:27;;;;;;;8.25;6.32;;;;;;;;;;5026155;28;20041;-69
2023/07/08 05:12:53;;;;;;;8.30;5.65;;;;;;;;;;5038178;28;20041;-69
2023/07/08 05:15:18;;;;;;;6.88;5.75;;;;;;;;;;5024741;28;20088;-68
2023/07/08 05:17:44;;;;;;;6.75;5.75;;;;;;;;;;5027332;28;20037;-69
2023/07/08 05:20:13;;;;;;;7.57;5.97;;;;;;;;;;5022602;28;20033;-68
2023/07/08 05:22:39;;;;;;;7.30;6.05;;;;;;;;;;5023294;28;20982;-69
2023/07/08 05:25:05;;;;;;;7.72;5.97;;;;;;;;;;5024383;28;20069;-69
2023/07/08 05:27:33;;;;;;;8.00;5.82;;;;;;;;;;5022267;28;20036;-69
2023/07/08 05:30:00;;;;;;;8.87;6.10;;;;;;;;;;5025457;28;20030;-69
2023/07/08 05:32:27;;;;;;;7.97;5.72;;;;;;;;;;5025260;28;20292;-69
2023/07/08 05:34:52;;;;;;;6.50;5.15;;;;;;;;;;5024093;28;20667;-68
2023/07/08 05:37:21;;;;;;;6.75;5.25;;;;;;;;;;5027233;28;20033;-69
2023/07/08 05:39:47;;;;;;;6.75;5.47;;;;;;;;;;5026238;28;20035;-69
2023/07/08 05:42:12;;;;;;;10.70;5.40;;;;;;;;;;5025224;28;20120;-68
2023/07/08 05:44:38;;;;;;;7.90;5.60;;;;;;;;;;5025234;28;20092;-69
2023/07/08 05:47:03;;;;;;;9.07;5.90;;;;;;;;;;5025538;28;20072;-69
2023/07/08 05:49:29;;;;;;;8.43;5.50;;;;;;;;;;5025274;28;20044;-68
2023/07/08 05:51:55;;;;;;;7.95;5.22;;;;;;;;;;5024515;28;20038;-68
2023/07/08 05:54:20;;;;;;;7.20;5.60;;;;;;;;;;5025661;28;20079;-68
2023/07/08 05:56:46;;;;;;;7.88;5.70;;;;;;;;;;5025498;28;20044;-69
2023/07/08 05:59:11;;;;;;;11.60;5.43;;;;;;;;;;5024172;28;20025;-68
2023/07/08 06:01:37;;;;;;;7.38;5.38;;;;;;;;;;5024347;28;20048;-69
2023/07/08 06:04:03;;;;;;;7.57;5.78;;;;;;;;;;5026132;28;20091;-68
2023/07/08 06:06:29;;;;;;;9.15;6.72;;;;;;;;;;5024393;28;20029;-68
2023/07/08 06:08:54;;;;;;;7.65;5.47;;;;;;;;;;5027248;28;20037;-68
2023/07/08 06:11:21;;;;;;;8.93;5.63;;;;;;;;;;5022970;28;20463;-69
2023/07/08 06:13:47;;;;;;;6.40;5.68;;;;;;;;;;5024429;28;20117;-69
2023/07/08 06:16:13;;;;;;;11.40;6.03;;;;;;;;;;5025241;28;20112;-68
2023/07/08 06:18:38;;;;;;;7.53;5.75;;;;;;;;;;5025011;28;20398;-68
2023/07/08 06:21:05;;;;;;;7.65;5.50;;;;;;;;;;5024046;28;20048;-68
2023/07/08 06:23:31;;;;;;;6.63;5.07;;;;;;;;;;5028541;28;20029;-68
2023/07/08 06:25:56;;;;;;;9.35;5.93;;;;;;;;;;5024909;28;20124;-69
2023/07/08 06:28:22;;;;;;;7.93;5.68;;;;;;;;;;5023237;28;20060;-68
2023/07/08 06:30:48;;;;;;;5.82;5.10;;;;;;;;;;5024623;28;20640;-68
2023/07/08 06:33:14;;;;;;;8.15;5.45;;;;;;;;;;5024786;28;20049;-68
2023/07/08 06:35:40;;;;;;;7.20;5.28;;;;;;;;;;5023514;28;20045;-68
2023/07/08 06:38:07;;;;;;;9.07;5.15;;;;;;;;;;5024133;28;20497;-68
2023/07/08 06:40:33;;;;;;;7.00;5.65;;;;;;;;;;5040255;28;20033;-68
2023/07/08 06:42:59;;;;;;;6.35;5.30;;;;;;;;;;5024830;28;20036;-67
2023/07/08 06:45:47;;;;;;;8.68;5.95;;;;;;;;;;5025570;28;20041;-67
2023/07/08 06:48:13;;;;;;;7.47;5.75;;;;;;;;;;5025137;28;20037;-68
2023/07/08 06:50:42;;;;;;;7.75;5.43;;;;;;;;;;5024930;28;20227;-70
2023/07/08 06:53:07;;;;;;;6.68;5.47;;;;;;;;;;5025126;28;20507;-68
2023/07/08 06:55:33;;;;;;;8.68;5.55;;;;;;;;;;5023369;28;20041;-68
2023/07/08 06:57:58;;;;;;;8.93;6.03;;;;;;;;;;5024373;28;20028;-68
2023/07/08 07:00:24;;;;;;;8.85;5.72;;;;;;;;;;5024266;28;20104;-68
2023/07/08 07:02:49;;;;;;;9.45;5.93;;;;;;;;;;5024072;28;20481;-68
2023/07/08 07:05:15;;;;;;;9.18;6.05;;;;;;;;;;5024700;28;20037;-68
2023/07/08 07:07:41;;;;;;;7.47;5.68;;;;;;;;;;5025150;28;20061;-68
2023/07/08 07:10:07;;;;;;;8.18;5.47;;;;;;;;;;5024501;28;20112;-68
2023/07/08 07:12:34;;;;;;;7.32;5.65;;;;;;;;;;5023611;28;20039;-68
2023/07/08 07:15:00;;;;;;;8.38;5.53;;;;;;;;;;5024884;28;20025;-68
2023/07/08 07:17:26;;;;;;;7.53;5.93;;;;;;;;;;5026792;28;20029;-68
2023/07/08 07:19:53;;;;;;;8.82;5.63;;;;;;;;;;5024563;28;20125;-68
2023/07/08 07:22:19;;;;;;;11.23;5.90;;;;;;;;;;5023589;28;20037;-67
2023/07/08 07:24:44;;;;;;;8.25;5.88;;;;;;;;;;5023137;28;20033;-68
2023/07/08 07:27:10;;;;;;;8.30;6.15;;;;;;;;;;5027949;28;20504;-68
2023/07/08 07:29:42;;;;;;;8.48;5.53;;;;;;;;;;5028261;28;20034;-68
2023/07/08 07:32:09;;;;;;;8.15;5.65;;;;;;;;;;5026424;28;20072;-70
2023/07/08 07:34:34;;;;;;;9.23;5.95;;;;;;;;;;5028432;28;20053;-70
2023/07/08 07:37:00;;;;;;;8.52;5.80;;;;;;;;;;5027247;28;20041;-69
2023/07/08 07:39:25;;;;;;;6.05;5.25;;;;;;;;;;5027230;28;20107;-69
2023/07/08 07:41:51;;;;;;;8.00;5.95;;;;;;;;;;5028519;28;20033;-70
2023/07/08 07:44:16;;;;;;;7.18;5.63;;;;;;;;;;5027911;28;20112;-70
2023/07/08 07:46:42;;;;;;;7.15;5.68;;;;;;;;;;5026716;28;20802;-70
2023/07/08 07:49:08;;;;;;;8.68;6.10;;;;;;;;;;5043121;28;20044;-70
2023/07/08 07:51:33;;;;;;;6.82;5.70;;;;;;;;;;5027897;28;20037;-69
2023/07/08 07:53:59;;;;;;;6.93;5.07;;;;;;;;;;5028097;28;20033;-70
2023/07/08 07:56:24;;;;;;;10.77;5.50;;;;;;;;;;5026254;28;20090;-70
2023/07/08 07:58:50;;;;;;;10.02;6.00;;;;;;;;;;5027697;28;20516;-70
2023/07/08 08:01:16;;;;;;;8.80;6.10;;;;;;;;;;5027808;28;20400;-69
2023/07/08 08:03:41;;;;;;;8.10;5.68;;;;;;;;;;5027973;28;20412;-70
2023/07/08 08:06:07;;;;;;;7.45;5.78;;;;;;;;;;5025986;28;20120;-70
2023/07/08 08:08:32;;;;;;;10.68;6.07;;;;;;;;;;5027032;28;20063;-70
2023/07/08 08:10:58;;;;;;;8.27;5.45;;;;;;;;;;5027791;28;20033;-70
2023/07/08 08:13:24;;;;;;;7.53;5.25;;;;;;;;;;5027190;28;20099;-70
2023/07/08 08:15:55;;;;;;;7.35;5.10;;;;;;;;;;5025623;28;20040;-70
2023/07/08 08:18:21;;;;;;;8.07;5.30;;;;;;;;;;5022349;28;20635;-70
2023/07/08 08:20:50;;;;;;;9.50;5.57;;;;;;;;;;5027787;28;20292;-70
2023/07/08 08:23:15;;;;;;;6.53;5.22;;;;;;;;;;5026821;28;20546;-70
2023/07/08 08:25:41;;;;;;;9.13;5.55;;;;;;;;;;5027234;28;20041;-70
2023/07/08 08:28:07;;;;;;;9.40;5.72;;;;;;;;;;5025913;28;20037;-70
2023/07/08 08:30:32;;;;;;;7.60;5.40;;;;;;;;;;5024063;28;20040;-70
2023/07/08 08:32:58;;;;;;;9.75;5.95;;;;;;;;;;5026631;28;20045;-70
2023/07/08 08:35:24;;;;;;;12.30;5.90;;;;;;;;;;5026655;28;20121;-70
2023/07/08 08:37:49;;;;;;;7.40;5.40;;;;;;;;;;5023555;28;20029;-70
2023/07/08 08:40:17;;;;;;;5.97;5.25;;;;;;;;;;5024142;28;20064;-69
2023/07/08 08:42:49;;;;;;;7.03;4.88;;;;;;;;;;5028790;28;20033;-70
2023/07/08 08:45:20;;;;;;;7.95;5.18;;;;;;;;;;5024393;28;20038;-70
2023/07/08 08:47:49;;;;;;;7.18;5.10;;;;;;;;;;5027534;28;20033;-69
2023/07/08 08:50:24;;;;;;;8.60;4.80;;;;;;;;;;5026808;28;20083;-70
2023/07/08 08:52:51;;;;;;;7.88;5.35;;;;;;;;;;5027087;28;20073;-69
2023/07/08 08:55:17;;;;;;;6.72;5.20;;;;;;;;;;5024783;28;20041;-67
2023/07/08 08:58:01;;;;;;;8.10;5.10;;;;;;;;;;5026147;28;20421;-70
2023/07/08 09:00:55;;;;;;;6.13;5.07;;;;;;;;;;5026109;28;20052;-70
2023/07/08 09:03:35;;;;;;;7.35;4.88;;;;;;;;;;5024031;28;20414;-70
2023/07/08 09:06:07;;;;;;;8.57;4.88;;;;;;;;;;5025881;28;20421;-70
2023/07/08 09:08:35;;;;;;;7.28;5.25;;;;;;;;;;5026346;28;20105;-70
2023/07/08 09:11:24;;;;;;;6.90;4.60;;;;;;;;;;5026734;28;20045;-70
2023/07/08 09:13:51;;;;;;;7.50;5.13;;;;;;;;;;5026421;28;20033;-70
2023/07/08 09:16:41;;;;;;;8.10;4.95;;;;;;;;;;5026887;28;20037;-70
2023/07/08 09:19:14;;;;;;;7.53;3.90;;;;;;;;;;5026189;28;20116;-69
2023/07/08 09:22:11;;;;;;;6.15;4.13;;;;;;;;;;5023727;28;20095;-70
2023/07/08 09:24:47;;;;;;;7.45;4.07;;;;;;;;;;5037734;28;20041;-70
2023/07/08 09:27:13;;;;;;;7.35;4.35;;;;;;;;;;5021719;28;20400;-70
2023/07/08 09:29:39;;;;;;;6.18;4.40;;;;;;;;;;5019047;28;20029;-69
2023/07/08 09:32:15;;;;;;;6.40;4.00;;;;;;;;;;5022013;28;20041;-67
2023/07/08 09:34:45;;;;;;;4.97;4.20;;;;;;;;;;5022246;28;20041;-70
2023/07/08 09:37:24;;;;;;;5.20;4.10;;;;;;;;;;5019745;28;20037;-69
2023/07/08 09:39:55;;;;;;;8.60;4.53;;;;;;;;;;5021408;28;20504;-69
2023/07/08 09:42:24;;;;;;;7.13;4.78;;;;;;;;;;5021892;28;20051;-69
2023/07/08 09:44:55;;;;;;;6.43;4.43;;;;;;;;;;5021588;28;20048;-69
2023/07/08 09:47:30;;;;;;;7.00;4.50;;;;;;;;;;5020162;28;20041;-70
2023/07/08 09:49:57;;;;;;;6.35;4.30;;;;;;;;;;5021790;28;20428;-70
2023/07/08 09:52:23;;;;;;;5.68;3.90;;;;;;;;;;5022289;28;20041;-69
2023/07/08 09:54:49;;;;;;;7.35;3.95;;;;;;;;;;5020388;28;20026;-69
2023/07/08 09:57:28;;;;;;;4.57;3.60;;;;;;;;;;5022211;28;20041;-69
2023/07/08 10:00:06;;;;;;;5.88;4.07;;;;;;;;;;5020234;28;20044;-70
2023/07/08 10:02:40;;;;;;;5.77;3.90;;;;;;;;;;5020663;28;20485;-70
2023/07/08 10:05:26;;;;;;;5.82;4.10;;;;;;;;;;5021651;28;20330;-70
2023/07/08 10:07:55;;;;;;;8.48;4.53;;;;;;;;;;5022282;28;20037;-69
2023/07/08 10:10:39;;;;;;;5.28;3.72;;;;;;;;;;5017772;28;20140;-69
2023/07/08 10:13:21;;;;;;;4.38;3.90;;;;;;;;;;5021982;28;20049;-69
2023/07/08 10:15:51;;;;;;;6.20;4.10;;;;;;;;;;5022253;28;20041;-69
2023/07/08 10:18:28;;;;;;;7.03;4.15;;;;;;;;;;5017142;28;20306;-69
2023/07/08 10:20:54;;;;;;;5.40;3.80;;;;;;;;;;5035213;28;20029;-69
2023/07/08 10:23:34;;;;;;;4.75;3.75;;;;;;;;;;5028323;28;20429;-69
2023/07/08 10:26:22;;;;;;;5.82;4.10;;;;;;;;;;5020673;28;20112;-69
2023/07/08 10:29:11;;;;;;;7.32;4.32;;;;;;;;;;5018026;28;20041;-69
2023/07/08 10:32:00;;;;;;;5.15;3.78;;;;;;;;;;5021367;28;20464;-69
2023/07/08 10:34:45;;;;;;;5.93;4.20;;;;;;;;;;5021538;28;20500;-69
2023/07/08 10:37:29;;;;;;;3.67;3.28;;;;;;;;;;5023235;28;20270;-69
2023/07/08 10:40:13;;;;;;;3.60;3.30;;;;;;;;;;5021331;28;20273;-69
2023/07/08 10:42:47;;;;;;;5.07;3.85;;;;;;;;;;5021604;28;20467;-69
2023/07/08 10:45:31;;;;;;;3.90;3.30;;;;;;;;;;5020589;28;20065;-69
2023/07/08 10:48:20;;;;;;;6.70;3.42;;;;;;;;;;5020388;28;20033;-69
2023/07/08 10:51:18;;;;;;;5.15;3.50;;;;;;;;;;5021607;28;20422;-69
2023/07/08 10:54:30;;;;;;;4.50;3.30;;;;;;;;;;5010621;28;20064;-70
2023/07/08 10:56:55;;;;;;;5.68;3.35;;;;;;;;;;5019436;28;20048;-69
2023/07/08 10:59:34;;;;;;;4.32;3.00;;;;;;;;;;5021808;28;20021;-69
2023/07/08 11:02:18;;;;;;;3.25;2.90;;;;;;;;;;5023711;28;20099;-69
2023/07/08 11:04:58;;;;;;;3.75;3.10;;;;;;;;;;5025625;28;20271;-70
2023/07/08 11:07:52;;;;;;;3.53;3.03;;;;;;;;;;5026117;28;20040;-69
2023/07/08 11:10:35;;;;;;;3.78;3.05;;;;;;;;;;5030564;28;20037;-68
2023/07/08 11:13:17;;;;;;;3.60;2.80;;;;;;;;;;5024360;28;20041;-69
2023/07/08 11:16:15;;;;;;;4.03;2.70;;;;;;;;;;5036284;28;20381;-69
2023/07/08 11:18:53;;;;;;;2.90;2.60;;;;;;;;;;5025309;28;20045;-70
2023/07/08 11:21:25;;;;;;;4.25;3.13;;;;;;;;;;5023257;28;20040;-68
2023/07/08 11:24:02;;;;;;;3.75;2.90;;;;;;;;;;5030902;28;20076;-69
2023/07/08 11:26:47;;;;;;;4.53;2.50;;;;;;;;;;5031497;28;20071;-68
2023/07/08 11:29:30;;;;;;;4.10;2.78;;;;;;;;;;5024177;28;20036;-69
2023/07/08 11:31:56;;;;;;;3.13;2.67;;;;;;;;;;5023976;28;20029;-69
2023/07/08 11:34:23;;;;;;;4.93;3.10;;;;;;;;;;5033754;28;20033;-69
2023/07/08 11:36:50;;;;;;;3.20;2.50;;;;;;;;;;5024688;28;20096;-69
2023/07/08 11:39:34;;;;;;;4.25;2.90;;;;;;;;;;5023253;28;20253;-69
2023/07/08 11:42:36;;;;;;;3.30;2.70;;;;;;;;;;5024492;28;20041;-69
2023/07/08 11:45:26;;;;;;;3.65;2.78;;;;;;;;;;5024464;28;20041;-69
2023/07/08 11:47:53;;;;;;;3.13;2.70;;;;;;;;;;5023066;28;20122;-69
2023/07/08 11:50:28;;;;;;;3.50;2.65;;;;;;;;;;5024334;28;20298;-69
2023/07/08 11:52:59;;;;;;;3.92;2.78;;;;;;;;;;5028896;28;20159;-69
2023/07/08 11:55:34;;;;;;;3.67;3.00;;;;;;;;;;5022436;28;20623;-70
2023/07/08 11:58:00;;;;;;;3.08;2.65;;;;;;;;;;5024579;28;20033;-70
2023/07/08 12:00:34;;;;;;;3.65;2.70;;;;;;;;;;5024711;28;20033;-69
2023/07/08 12:03:18;;;;;;;3.97;3.00;;;;;;;;;;5024081;28;20052;-69
2023/07/08 12:05:44;;;;;;;3.67;2.72;;;;;;;;;;5032635;28;20037;-68
2023/07/08 12:08:18;;;;;;;2.70;2.50;;;;;;;;;;5023466;28;20449;-68
2023/07/08 12:10:51;;;;;;;2.60;2.40;;;;;;;;;;5022801;28;20029;-68
2023/07/08 12:13:23;;;;;;;6.32;3.20;;;;;;;;;;5022910;28;20065;-68
2023/07/08 12:15:49;;;;;;;3.30;2.92;;;;;;;;;;5024160;28;20033;-68
2023/07/08 12:18:20;;;;;;;3.22;2.60;;;;;;;;;;5023627;28;20041;-68
2023/07/08 12:20:50;;;;;;;3.38;2.90;;;;;;;;;;5027097;28;20045;-68
2023/07/08 12:23:20;;;;;;;5.47;2.88;;;;;;;;;;5038702;28;20065;-68
2023/07/08 12:25:46;;;;;;;3.05;2.83;;;;;;;;;;5022552;28;20056;-68
2023/07/08 12:28:13;;;;;;;3.58;3.03;;;;;;;;;;5020219;28;20052;-68
2023/07/08 12:30:39;;;;;;;2.92;2.72;;;;;;;;;;5022017;28;20603;-68
2023/07/08 12:33:13;;;;;;;3.72;3.00;;;;;;;;;;5021728;28;20119;-69
2023/07/08 12:35:40;;;;;;;3.30;2.85;;;;;;;;;;5021880;28;20037;-67
2023/07/08 12:38:33;;;;;;;3.10;2.80;;;;;;;;;;5020153;28;20061;-68
2023/07/08 12:41:01;;;;;;;3.00;2.60;;;;;;;;;;5020322;28;20046;-67
2023/07/08 12:43:26;;;;;;;3.45;3.00;;;;;;;;;;5021271;28;20311;-67
2023/07/08 12:45:52;;;;;;;4.35;3.00;;;;;;;;;;5027577;28;20158;-68
2023/07/08 12:48:18;;;;;;;6.30;2.95;;;;;;;;;;5030269;28;20124;-67
2023/07/08 12:50:43;;;;;;;3.80;3.40;;;;;;;;;;5029833;28;20400;-68
2023/07/08 12:53:12;;;;;;;4.15;3.20;;;;;;;;;;5035502;28;20112;-68
2023/07/08 12:55:38;;;;;;;;;;;;;;;;;;5020860;28;20257;-68
2023/07/08 12:58:05;;;;;;;3.00;2.70;;;;;;;;;;5025879;28;20073;-68
2023/07/08 13:00:38;;;;;;;3.20;2.90;;;;;;;;;;5026154;28;20029;-68
2023/07/08 13:03:08;;;;;;;4.20;2.78;;;;;;;;;;5025722;28;20163;-69
2023/07/08 13:05:34;;;;;;;3.17;2.63;;;;;;;;;;5026032;28;20481;-68
2023/07/08 13:07:59;;;;;;;3.00;2.80;;;;;;;;;;5027342;28;20120;-68
2023/07/08 13:10:28;;;;;;;3.10;2.80;;;;;;;;;;5023556;28;20108;-68
2023/07/08 13:12:59;;;;;;;5.22;3.00;;;;;;;;;;5025877;28;20458;-68
2023/07/08 13:15:30;;;;;;;3.15;2.90;;;;;;;;;;5026008;28;20321;-68
2023/07/08 13:17:56;;;;;;;3.65;2.80;;;;;;;;;;5026861;28;20047;-68
2023/07/08 13:20:22;;;;;;;3.30;2.60;;;;;;;;;;5023889;28;20033;-68
2023/07/08 13:22:56;;;;;;;3.13;2.70;;;;;;;;;;5025928;28;20037;-68
2023/07/08 13:25:28;;;;;;;3.28;2.70;;;;;;;;;;5025618;28;20043;-68
2023/07/08 13:28:15;;;;;;;4.80;2.78;;;;;;;;;;5024694;28;20037;-68
2023/07/08 13:30:57;;;;;;;2.85;2.65;;;;;;;;;;5027207;28;20542;-68
2023/07/08 13:33:23;;;;;;;3.80;2.90;;;;;;;;;;5025460;28;20036;-68
2023/07/08 13:35:51;;;;;;;4.75;2.72;;;;;;;;;;5020828;28;20120;-68
2023/07/08 13:38:20;;;;;;;2.97;2.77;;;;;;;;;;5025311;28;20504;-68
2023/07/08 13:40:49;;;;;;;4.55;2.83;;;;;;;;;;5025595;28;20075;-68
2023/07/08 13:43:15;;;;;;;5.05;2.90;;;;;;;;;;5024148;28;20033;-68
2023/07/08 13:45:47;;;;;;;4.72;2.85;;;;;;;;;;5020841;28;20042;-68
2023/07/08 13:48:42;;;;;;;3.97;2.92;;;;;;;;;;5025021;28;20041;-68
2023/07/08 13:51:22;;;;;;;4.38;2.78;;;;;;;;;;5025552;28;20033;-68
2023/07/08 13:53:57;;;;;;;3.53;2.60;;;;;;;;;;5023116;28;20041;-69
2023/07/08 13:56:27;;;;;;;3.42;3.03;;;;;;;;;;5023706;28;20041;-68
2023/07/08 13:59:02;;;;;;;2.97;2.78;;;;;;;;;;5025204;28;20060;-69
2023/07/08 14:01:30;;;;;;;4.65;3.22;;;;;;;;;;5022509;28;20316;-68
2023/07/08 14:03:56;;;;;;;;;;;;;;;;;;5023604;28;20083;-68
2023/07/08 14:06:28;;;;;;;5.90;3.42;;;;;;;;;;5024840;28;19916;-69
2023/07/08 14:08:56;;;;;;;3.83;2.88;;;;;;;;;;5024210;28;20421;-68
2023/07/08 14:11:22;;;;;;;5.13;2.72;;;;;;;;;;5024122;28;20041;-69
2023/07/08 14:13:48;;;;;;;4.70;3.10;;;;;;;;;;5025395;28;20043;-68
2023/07/08 14:16:35;;;;;;;5.03;3.10;;;;;;;;;;5030995;28;20040;-68
2023/07/08 14:19:05;;;;;;;3.03;2.72;;;;;;;;;;5024882;28;20018;-68
2023/07/08 14:21:35;;;;;;;3.17;2.75;;;;;;;;;;5037831;28;20090;-68
2023/07/08 14:24:00;;;;;;;2.83;2.58;;;;;;;;;;5024888;28;20098;-68
2023/07/08 14:26:28;;;;;;;3.72;2.85;;;;;;;;;;5023122;28;20037;-68
2023/07/08 14:28:54;;;;;;;3.25;2.95;;;;;;;;;;5022914;28;20179;-68
2023/07/08 14:31:25;;;;;;;3.97;3.17;;;;;;;;;;5021209;28;20100;-68
2023/07/08 14:34:01;;;;;;;4.68;2.78;;;;;;;;;;5024011;28;20091;-68
2023/07/08 14:36:27;;;;;;;3.28;2.70;;;;;;;;;;5024201;28;20558;-69
2023/07/08 14:38:52;;;;;;;3.30;3.00;;;;;;;;;;5022730;28;20072;-69
2023/07/08 14:41:18;;;;;;;3.00;2.60;;;;;;;;;;5018768;28;20037;-68
2023/07/08 14:43:44;;;;;;;6.38;2.78;;;;;;;;;;5019825;28;20099;-69
2023/07/08 14:46:10;;;;;;;4.82;2.85;;;;;;;;;;5031140;28;20082;-68
2023/07/08 14:48:36;;;;;;;5.55;2.90;;;;;;;;;;5021408;28;20481;-69
2023/07/08 14:51:02;;;;;;;2.70;2.30;;;;;;;;;;5025148;28;20038;-68
2023/07/08 14:53:28;;;;;;;4.97;3.03;;;;;;;;;;5026815;28;20406;-69
2023/07/08 14:55:56;;;;;;;5.78;2.95;;;;;;;;;;5029003;28;20029;-69
2023/07/08 14:58:29;;;;;;;4.93;3.20;;;;;;;;;;5025237;28;20061;-69
2023/07/08 15:00:57;;;;;;;3.45;2.72;;;;;;;;;;5019889;28;20536;-69
2023/07/08 15:03:24;;;;;;;4.28;2.92;;;;;;;;;;5028803;28;20098;-69